Time;durP1;ratioP1;P1;durP2;ratioP2;P2;SDS_P1;SDS_P2;PMS_P1;PMS_P2;Temp;Humidity;BMP_temperature;BMP_pressure;BME280_temperature;BME280_humidity;BME280_pressure;Samples;Min_cycle;Max_cycle;Signal;HPM_P1;HPM_P2
2022/03/23 00:02:14;;;;;;;8.50;3.67;;;22.80;39.00;;;;;;5002367;28;20049;-60
2022/03/23 00:04:39;;;;;;;8.02;3.72;;;22.80;39.00;;;;;;5003767;28;20030;-65
2022/03/23 00:07:05;;;;;;;6.97;3.42;;;22.80;39.00;;;;;;5006394;28;20033;-65
2022/03/23 00:09:31;;;;;;;6.30;3.42;;;22.70;38.90;;;;;;5003232;28;20060;-65
2022/03/23 00:11:56;;;;;;;5.55;2.92;;;22.70;39.00;;;;;;5005915;28;20026;-65
2022/03/23 00:14:23;;;;;;;6.63;3.40;;;22.70;39.00;;;;;;5003148;28;20034;-65
2022/03/23 00:16:49;;;;;;;7.32;3.75;;;22.70;39.00;;;;;;5001306;28;20037;-65
2022/03/23 00:19:17;;;;;;;5.78;3.33;;;22.70;38.90;;;;;;5005170;28;20160;-60
2022/03/23 00:21:43;;;;;;;6.80;3.25;;;22.70;38.90;;;;;;5005851;28;20030;-65
2022/03/23 00:24:08;;;;;;;8.20;3.50;;;22.70;39.00;;;;;;5002258;28;20037;-65
2022/03/23 00:26:35;;;;;;;6.32;3.40;;;22.70;38.90;;;;;;5003679;28;20429;-61
2022/03/23 00:29:00;;;;;;;7.60;3.08;;;22.60;38.90;;;;;;5003019;28;20038;-65
2022/03/23 00:31:26;;;;;;;8.60;3.70;;;22.60;38.90;;;;;;5000742;28;20465;-65
2022/03/23 00:33:54;;;;;;;5.50;3.30;;;22.60;39.00;;;;;;5010567;28;20509;-64
2022/03/23 00:36:20;;;;;;;7.63;3.55;;;22.60;39.00;;;;;;5002142;28;20505;-61
2022/03/23 00:38:46;;;;;;;7.20;3.42;;;22.60;39.00;;;;;;5002920;28;20479;-65
2022/03/23 00:41:12;;;;;;;7.13;3.80;;;22.60;38.90;;;;;;5003350;28;20034;-65
2022/03/23 00:43:38;;;;;;;7.93;3.40;;;22.60;39.00;;;;;;5000524;28;20505;-65
2022/03/23 00:46:04;;;;;;;5.72;3.22;;;22.60;39.00;;;;;;5003777;28;20049;-65
2022/03/23 00:48:30;;;;;;;6.82;3.17;;;22.60;39.00;;;;;;5006016;28;20417;-65
2022/03/23 00:50:56;;;;;;;6.60;3.10;;;22.50;39.50;;;;;;5004355;28;20494;-65
2022/03/23 00:53:22;;;;;;;7.97;3.58;;;22.50;39.00;;;;;;5003001;28;20387;-65
2022/03/23 00:55:48;;;;;;;5.65;2.88;;;22.50;38.90;;;;;;5002070;28;20594;-65
2022/03/23 00:58:13;;;;;;;6.32;2.90;;;22.50;39.00;;;;;;5002633;28;20592;-66
2022/03/23 01:00:41;;;;;;;6.70;3.40;;;22.50;39.00;;;;;;5001052;28;20041;-65
2022/03/23 01:03:06;;;;;;;5.78;3.10;;;22.50;39.00;;;;;;5003942;28;20636;-63
2022/03/23 01:05:32;;;;;;;5.90;3.67;;;22.50;39.00;;;;;;5001154;28;20030;-65
2022/03/23 01:07:58;;;;;;;6.63;3.10;;;22.40;38.90;;;;;;4996544;28;20041;-65
2022/03/23 01:10:24;;;;;;;6.13;2.90;;;22.40;39.00;;;;;;5003376;28;20536;-65
2022/03/23 01:12:54;;;;;;;6.72;3.00;;;22.50;39.00;;;;;;5001225;28;20052;-63
2022/03/23 01:15:20;;;;;;;;;;;22.40;39.00;;;;;;5000849;28;20332;-65
2022/03/23 01:17:45;;;;;;;5.20;2.78;;;22.40;38.90;;;;;;5001585;28;20377;-63
2022/03/23 01:20:14;;;;;;;6.18;3.20;;;22.40;39.00;;;;;;5005232;28;20025;-65
2022/03/23 01:22:40;;;;;;;5.10;2.80;;;22.40;39.00;;;;;;5000875;28;20170;-63
2022/03/23 01:25:08;;;;;;;5.35;3.10;;;22.40;39.00;;;;;;5002518;28;20029;-61
2022/03/23 01:27:34;;;;;;;6.07;3.30;;;22.40;39.00;;;;;;5002604;28;20222;-65
2022/03/23 01:30:00;;;;;;;5.85;3.10;;;22.40;39.00;;;;;;5001726;28;20053;-64
2022/03/23 01:32:26;;;;;;;6.78;3.20;;;22.40;39.00;;;;;;5002421;28;20039;-65
2022/03/23 01:34:51;;;;;;;6.20;3.67;;;22.40;39.00;;;;;;5000077;28;20547;-62
2022/03/23 01:37:17;;;;;;;5.07;2.47;;;22.30;39.00;;;;;;5001303;28;20395;-63
2022/03/23 01:39:43;;;;;;;5.95;3.13;;;22.30;39.00;;;;;;5018793;28;20097;-61
2022/03/23 01:42:08;;;;;;;5.50;2.70;;;22.30;39.00;;;;;;5003347;28;20037;-66
2022/03/23 01:44:34;;;;;;;5.90;2.97;;;22.30;39.00;;;;;;5002390;28;20129;-65
2022/03/23 01:47:11;;;;;;;5.55;2.90;;;22.30;39.00;;;;;;5002800;28;20040;-63
2022/03/23 01:49:51;;;;;;;4.55;2.63;;;22.30;39.00;;;;;;5004030;28;20106;-65
2022/03/23 01:52:19;;;;;;;5.45;3.00;;;22.30;39.00;;;;;;5002709;28;20092;-66
2022/03/23 01:54:45;;;;;;;5.22;2.58;;;22.30;39.10;;;;;;4993476;28;20097;-65
2022/03/23 01:57:14;;;;;;;5.10;2.90;;;22.30;39.10;;;;;;5017739;28;20041;-62
2022/03/23 01:59:40;;;;;;;4.35;2.58;;;22.20;39.10;;;;;;4999695;28;20022;-65
2022/03/23 02:02:08;;;;;;;4.97;2.75;;;22.30;39.00;;;;;;5001219;28;20121;-62
2022/03/23 02:04:34;;;;;;;4.45;2.45;;;22.20;39.00;;;;;;5002897;28;20060;-65
2022/03/23 02:06:59;;;;;;;4.45;2.60;;;22.20;39.10;;;;;;5001423;28;20491;-65
2022/03/23 02:09:27;;;;;;;4.43;2.33;;;22.20;39.00;;;;;;5001877;28;20046;-61
2022/03/23 02:11:53;;;;;;;5.35;2.60;;;22.20;39.10;;;;;;5003473;28;20506;-63
2022/03/23 02:14:19;;;;;;;4.22;2.53;;;22.20;39.10;;;;;;5001131;28;20022;-63
2022/03/23 02:16:50;;;;;;;3.65;2.33;;;22.20;39.00;;;;;;5001841;28;20037;-65
2022/03/23 02:19:17;;;;;;;4.50;2.67;;;22.20;39.10;;;;;;5004386;28;20029;-65
2022/03/23 02:21:47;;;;;;;5.18;2.70;;;22.10;39.00;;;;;;5004609;28;20037;-65
2022/03/23 02:24:14;;;;;;;4.15;2.30;;;22.10;39.00;;;;;;5000872;28;20076;-64
2022/03/23 02:26:41;;;;;;;5.07;2.45;;;22.10;39.00;;;;;;5000833;28;20036;-65
2022/03/23 02:29:07;;;;;;;4.68;2.47;;;22.10;39.10;;;;;;5003742;28;20811;-65
2022/03/23 02:31:34;;;;;;;4.70;2.38;;;22.10;39.00;;;;;;5000768;28;20040;-65
2022/03/23 02:34:00;;;;;;;4.45;2.55;;;22.10;39.10;;;;;;5004127;28;20037;-65
2022/03/23 02:36:25;;;;;;;4.45;2.60;;;22.10;39.10;;;;;;5002091;28;20557;-65
2022/03/23 02:38:51;;;;;;;4.45;2.25;;;22.10;39.10;;;;;;5003142;28;20037;-65
2022/03/23 02:41:17;;;;;;;4.13;2.40;;;22.10;39.60;;;;;;5003228;28;20152;-65
2022/03/23 02:43:42;;;;;;;5.30;2.40;;;22.10;39.10;;;;;;5001352;28;20072;-65
2022/03/23 02:46:16;;;;;;;4.72;2.47;;;22.10;39.10;;;;;;5002006;28;20033;-65
2022/03/23 02:48:42;;;;;;;3.95;2.10;;;22.10;39.10;;;;;;5004682;28;20286;-65
2022/03/23 02:51:08;;;;;;;4.30;2.20;;;22.00;39.00;;;;;;5001600;28;20026;-65
2022/03/23 03:02:25;;;;;;;4.13;2.30;;;22.00;39.10;;;;;;5002042;28;20471;-65
2022/03/23 03:04:51;;;;;;;4.03;2.40;;;22.00;39.10;;;;;;5005122;28;20029;-61
2022/03/23 03:07:18;;;;;;;4.18;2.50;;;22.00;39.10;;;;;;5007601;28;20057;-61
2022/03/23 03:09:44;;;;;;;3.45;2.03;;;22.00;39.20;;;;;;5003758;28;20030;-65
2022/03/23 03:12:11;;;;;;;3.97;2.25;;;22.00;39.10;;;;;;5003981;28;20392;-63
2022/03/23 03:14:40;;;;;;;4.10;2.17;;;22.00;39.10;;;;;;5005889;28;20030;-65
2022/03/23 03:17:07;;;;;;;;;;;21.90;39.10;;;;;;5005449;28;20041;-65
2022/03/23 03:19:33;;;;;;;3.53;2.20;;;21.90;39.10;;;;;;5005265;28;19929;-64
2022/03/23 03:21:59;;;;;;;3.90;2.08;;;21.90;39.10;;;;;;5006098;28;20038;-65
2022/03/23 03:24:25;;;;;;;3.83;2.10;;;21.90;39.10;;;;;;5003276;28;20093;-65
2022/03/23 03:26:51;;;;;;;4.20;2.22;;;21.90;39.20;;;;;;5002650;28;20030;-64
2022/03/23 03:29:17;;;;;;;3.75;2.10;;;21.90;39.10;;;;;;5001918;28;20045;-60
2022/03/23 03:31:43;;;;;;;4.13;2.28;;;21.90;39.20;;;;;;5005751;28;20037;-65
2022/03/23 03:34:09;;;;;;;3.58;1.90;;;21.90;39.20;;;;;;5004644;28;20029;-65
2022/03/23 03:36:36;;;;;;;5.25;2.33;;;21.90;39.20;;;;;;5007085;28;20438;-61
2022/03/23 03:39:03;;;;;;;4.25;2.00;;;21.80;39.10;;;;;;5002918;28;20089;-60
2022/03/23 03:41:28;;;;;;;3.38;2.00;;;21.80;39.10;;;;;;5002801;28;20275;-62
2022/03/23 03:43:54;;;;;;;3.30;2.08;;;21.80;39.10;;;;;;5005254;28;20112;-61
2022/03/23 03:46:20;;;;;;;3.83;2.05;;;21.80;39.60;;;;;;5003185;28;20056;-65
2022/03/23 03:48:46;;;;;;;3.75;2.20;;;21.80;39.20;;;;;;5005285;28;20038;-62
2022/03/23 03:51:11;;;;;;;3.10;1.92;;;21.80;39.20;;;;;;5006057;28;20115;-65
2022/03/23 03:53:37;;;;;;;3.58;2.08;;;21.80;39.20;;;;;;5003983;28;20182;-65
2022/03/23 03:56:04;;;;;;;3.72;1.95;;;21.80;39.20;;;;;;5003236;28;20049;-65
2022/03/23 03:58:29;;;;;;;3.40;1.92;;;21.80;39.20;;;;;;5002637;28;20105;-62
2022/03/23 04:00:55;;;;;;;3.28;2.03;;;21.80;39.20;;;;;;5005197;28;20069;-65
2022/03/23 04:03:21;;;;;;;2.85;1.75;;;21.80;39.20;;;;;;5005307;28;20053;-65
2022/03/23 04:05:46;;;;;;;3.50;1.90;;;21.80;39.30;;;;;;5004809;28;20033;-65
2022/03/23 04:08:12;;;;;;;3.13;1.83;;;21.70;39.20;;;;;;4999688;28;20101;-61
2022/03/23 04:10:38;;;;;;;3.10;1.60;;;21.80;39.30;;;;;;5003954;28;20041;-65
2022/03/23 04:13:07;;;;;;;3.75;1.67;;;21.70;39.20;;;;;;5005090;28;20108;-65
2022/03/23 04:15:34;;;;;;;3.08;1.70;;;21.70;39.20;;;;;;5003620;28;20026;-65
2022/03/23 04:18:00;;;;;;;3.00;1.90;;;21.70;39.30;;;;;;5005868;28;20041;-66
2022/03/23 04:20:25;;;;;;;3.28;1.80;;;21.70;39.30;;;;;;5004350;28;20092;-65
2022/03/23 04:22:51;;;;;;;2.72;1.85;;;21.70;39.30;;;;;;5005432;28;20030;-65
2022/03/23 04:25:18;;;;;;;3.53;2.10;;;21.70;39.30;;;;;;5001694;28;20362;-64
2022/03/23 04:27:52;;;;;;;3.13;1.88;;;21.70;39.30;;;;;;5004605;28;20034;-62
2022/03/23 04:30:19;;;;;;;4.13;1.88;;;21.70;39.30;;;;;;5001767;28;20038;-65
2022/03/23 04:32:46;;;;;;;3.03;1.73;;;21.70;39.40;;;;;;5000788;28;20121;-65
2022/03/23 04:35:12;;;;;;;2.85;1.75;;;21.70;39.30;;;;;;5004193;28;20176;-62
2022/03/23 04:37:42;;;;;;;3.30;1.92;;;21.70;39.30;;;;;;5000869;28;20034;-62
2022/03/23 04:40:09;;;;;;;3.13;1.90;;;21.60;39.30;;;;;;4999969;28;20081;-65
2022/03/23 04:42:36;;;;;;;3.42;2.00;;;21.60;39.30;;;;;;5000396;28;20065;-65
2022/03/23 04:45:02;;;;;;;3.95;2.10;;;21.60;39.30;;;;;;5008743;28;20205;-65
2022/03/23 04:47:28;;;;;;;2.85;1.70;;;21.60;39.40;;;;;;5003727;28;20034;-65
2022/03/23 04:49:54;;;;;;;3.22;2.15;;;21.70;39.40;;;;;;5001461;28;20033;-65
2022/03/23 04:52:20;;;;;;;3.50;1.80;;;21.60;39.40;;;;;;5001040;28;20030;-65
2022/03/23 04:54:46;;;;;;;3.25;2.00;;;21.70;39.50;;;;;;5000821;28;20120;-65
2022/03/23 04:57:12;;;;;;;3.30;1.90;;;21.60;39.40;;;;;;5001229;28;20116;-65
2022/03/23 04:59:37;;;;;;;3.10;2.10;;;21.60;39.40;;;;;;4998741;28;20045;-65
2022/03/23 05:02:03;;;;;;;3.22;1.83;;;21.60;39.40;;;;;;4999862;28;20117;-65
2022/03/23 05:04:29;;;;;;;3.13;1.90;;;21.60;39.40;;;;;;5000374;28;20412;-65
2022/03/23 05:06:54;;;;;;;3.50;1.80;;;21.60;39.40;;;;;;5004911;28;20034;-64
2022/03/23 05:09:20;;;;;;;3.03;1.92;;;21.60;39.50;;;;;;4998718;28;20057;-65
2022/03/23 05:11:46;;;;;;;3.40;2.20;;;21.60;39.40;;;;;;5001953;28;20423;-66
2022/03/23 05:14:11;;;;;;;3.08;1.90;;;21.60;39.40;;;;;;4996458;28;20143;-64
2022/03/23 05:16:38;;;;;;;3.30;1.92;;;21.60;39.40;;;;;;4997674;28;20033;-65
2022/03/23 05:19:04;;;;;;;2.85;1.75;;;21.60;39.40;;;;;;5001663;28;20028;-65
2022/03/23 05:21:29;;;;;;;3.17;1.90;;;21.60;39.40;;;;;;5002290;28;20038;-64
2022/03/23 05:23:55;;;;;;;3.58;1.95;;;21.60;39.50;;;;;;5000687;28;20064;-64
2022/03/23 05:26:21;;;;;;;2.95;1.77;;;21.60;39.50;;;;;;5004172;28;20617;-63
2022/03/23 05:28:46;;;;;;;2.55;1.58;;;21.60;39.50;;;;;;5010452;28;20037;-64
2022/03/23 05:31:12;;;;;;;2.72;1.70;;;21.60;39.50;;;;;;5001919;28;20534;-64
2022/03/23 05:33:38;;;;;;;3.22;1.70;;;21.60;39.50;;;;;;5001539;28;20053;-62
2022/03/23 05:36:04;;;;;;;3.33;2.08;;;21.60;39.50;;;;;;5002495;28;20128;-63
2022/03/23 05:38:29;;;;;;;2.80;1.77;;;21.60;39.50;;;;;;5001621;28;20022;-62
2022/03/23 05:40:55;;;;;;;2.95;1.77;;;21.60;39.50;;;;;;5002243;28;20037;-63
2022/03/23 05:43:20;;;;;;;2.95;1.65;;;21.60;39.50;;;;;;4998625;28;20026;-64
2022/03/23 05:45:46;;;;;;;3.25;1.70;;;21.60;39.50;;;;;;5003273;28;20021;-65
2022/03/23 05:48:12;;;;;;;3.17;1.90;;;21.60;39.50;;;;;;5000642;28;20030;-60
2022/03/23 05:50:38;;;;;;;2.75;1.73;;;21.60;39.60;;;;;;5001069;28;20080;-64
2022/03/23 05:53:03;;;;;;;2.78;1.70;;;21.60;39.60;;;;;;4995263;28;20049;-65
2022/03/23 05:55:30;;;;;;;2.75;1.80;;;21.60;39.60;;;;;;4993716;28;20125;-62
2022/03/23 05:57:55;;;;;;;2.75;1.70;;;21.50;39.50;;;;;;5002093;28;20041;-64
2022/03/23 06:00:21;;;;;;;3.03;1.70;;;21.50;39.50;;;;;;4996991;28;20056;-61
2022/03/23 06:02:47;;;;;;;2.70;1.50;;;21.50;39.60;;;;;;4996807;28;20030;-64
2022/03/23 06:05:14;;;;;;;2.90;1.73;;;21.50;39.60;;;;;;4992275;28;20212;-65
2022/03/23 06:07:39;;;;;;;2.70;1.60;;;21.60;39.60;;;;;;4998863;28;20044;-64
2022/03/23 06:10:08;;;;;;;3.05;1.70;;;21.50;40.10;;;;;;5001257;28;20033;-64
2022/03/23 06:12:34;;;;;;;3.03;1.63;;;21.50;39.60;;;;;;4999057;28;20652;-64
2022/03/23 06:15:00;;;;;;;2.30;1.52;;;21.50;39.60;;;;;;5001494;28;20053;-64
2022/03/23 06:17:26;;;;;;;2.80;1.52;;;21.50;39.70;;;;;;4998962;28;20041;-63
2022/03/23 06:19:51;;;;;;;2.53;1.35;;;21.50;39.70;;;;;;5003064;28;20611;-61
2022/03/23 06:22:18;;;;;;;2.53;1.60;;;21.50;39.70;;;;;;5002878;28;20026;-65
2022/03/23 06:24:43;;;;;;;2.45;1.48;;;21.50;39.70;;;;;;5000328;28;20029;-64
2022/03/23 06:27:09;;;;;;;2.80;1.50;;;21.50;39.70;;;;;;5000906;28;20048;-64
2022/03/23 06:29:35;;;;;;;3.40;1.67;;;21.50;39.70;;;;;;5000988;28;20038;-64
2022/03/23 06:32:00;;;;;;;2.78;1.60;;;21.50;39.70;;;;;;5000117;28;20078;-64
2022/03/23 06:34:26;;;;;;;2.90;1.70;;;21.50;39.70;;;;;;4995766;28;20348;-62
2022/03/23 06:36:51;;;;;;;3.65;1.70;;;21.50;39.80;;;;;;4998691;28;20026;-64
2022/03/23 06:39:17;;;;;;;3.22;1.80;;;21.50;39.90;;;;;;4999265;28;20034;-61
2022/03/23 06:41:43;;;;;;;2.85;1.50;;;21.50;39.90;;;;;;5004260;28;20029;-65
2022/03/23 06:44:09;;;;;;;3.53;1.70;;;21.50;40.10;;;;;;5001911;28;20376;-64
2022/03/23 06:46:35;;;;;;;3.90;1.83;;;21.60;40.10;;;;;;5004582;28;20180;-64
2022/03/23 06:49:00;;;;;;;3.83;1.63;;;21.60;40.30;;;;;;5003657;28;20040;-64
2022/03/23 06:51:26;;;;;;;2.80;1.48;;;21.60;40.20;;;;;;5006156;28;20034;-60
2022/03/23 06:53:52;;;;;;;2.50;1.50;;;21.60;40.20;;;;;;5002591;28;20108;-65
2022/03/23 06:56:18;;;;;;;2.95;1.50;;;21.60;40.30;;;;;;5005188;28;20045;-65
2022/03/23 06:58:44;;;;;;;3.22;1.60;;;21.70;40.30;;;;;;5000190;28;20480;-61
2022/03/23 07:01:10;;;;;;;2.70;1.50;;;21.70;40.20;;;;;;5007688;28;20049;-64
2022/03/23 07:03:36;;;;;;;2.50;1.63;;;21.70;40.10;;;;;;5004111;28;20109;-65
2022/03/23 07:06:02;;;;;;;2.90;1.70;;;21.70;40.10;;;;;;5007637;28;20050;-65
2022/03/23 07:11:12;;;;;;;3.13;1.75;;;21.80;40.20;;;;;;5003652;28;20041;-65
2022/03/23 07:13:38;;;;;;;2.78;1.60;;;21.80;40.10;;;;;;5000361;28;20034;-64
2022/03/23 07:16:04;;;;;;;2.92;1.58;;;21.80;40.20;;;;;;4995463;28;20068;-60
2022/03/23 07:18:30;;;;;;;3.75;1.80;;;21.90;40.20;;;;;;5002560;28;20048;-64
2022/03/23 07:20:55;;;;;;;2.90;1.65;;;21.90;40.30;;;;;;5003615;28;20522;-65
2022/03/23 07:23:21;;;;;;;3.38;1.92;;;21.90;40.10;;;;;;5000571;28;20069;-63
2022/03/23 07:25:47;;;;;;;3.83;1.95;;;21.90;40.10;;;;;;5004189;28;20030;-62
2022/03/23 07:28:13;;;;;;;3.15;1.63;;;21.90;40.00;;;;;;5005588;28;20080;-63
2022/03/23 07:30:40;;;;;;;2.88;1.70;;;22.00;40.10;;;;;;5001075;28;20841;-64
2022/03/23 07:33:06;;;;;;;3.05;1.90;;;22.00;40.10;;;;;;5001055;28;20064;-65
2022/03/23 07:35:32;;;;;;;3.60;1.95;;;22.00;40.00;;;;;;5004577;28;20534;-65
2022/03/23 07:37:58;;;;;;;5.70;2.17;;;22.00;40.00;;;;;;5002730;28;20265;-65
2022/03/23 07:40:23;;;;;;;3.28;2.08;;;22.10;40.00;;;;;;5001747;28;20022;-65
2022/03/23 07:42:49;;;;;;;3.40;1.98;;;22.10;39.90;;;;;;5005768;28;20418;-65
2022/03/23 07:45:14;;;;;;;4.47;1.98;;;22.10;39.90;;;;;;5000446;28;20026;-64
2022/03/23 07:47:40;;;;;;;3.17;2.08;;;22.10;39.90;;;;;;5003415;28;20458;-65
2022/03/23 07:50:07;;;;;;;3.47;1.92;;;22.20;39.90;;;;;;5005046;28;20042;-62
2022/03/23 07:52:33;;;;;;;3.42;1.90;;;22.20;39.90;;;;;;5002881;28;20036;-63
2022/03/23 07:55:02;;;;;;;5.30;2.30;;;22.20;39.80;;;;;;5002395;28;20056;-61
2022/03/23 07:57:28;;;;;;;4.37;2.30;;;22.20;39.80;;;;;;5002255;28;20026;-65
2022/03/23 07:59:56;;;;;;;2.97;1.90;;;22.30;39.90;;;;;;5005469;28;20732;-64
2022/03/23 08:02:24;;;;;;;3.23;1.97;;;22.30;39.80;;;;;;5003012;28;20069;-64
2022/03/23 08:04:50;;;;;;;3.90;1.80;;;22.30;39.80;;;;;;5001406;28;20395;-64
2022/03/23 08:07:15;;;;;;;3.42;2.00;;;22.30;39.80;;;;;;5003284;28;20053;-64
2022/03/23 08:09:41;;;;;;;3.90;2.00;;;22.30;39.80;;;;;;5003412;28;20273;-65
2022/03/23 08:12:06;;;;;;;4.72;2.38;;;22.40;39.80;;;;;;5004382;28;20083;-61
2022/03/23 08:14:32;;;;;;;3.10;1.85;;;22.40;39.70;;;;;;5001733;28;20070;-65
2022/03/23 08:16:58;;;;;;;3.47;2.05;;;22.40;39.70;;;;;;5002352;28;20404;-64
2022/03/23 08:19:24;;;;;;;3.75;2.22;;;22.40;39.70;;;;;;5001624;28;20471;-62
2022/03/23 08:21:50;;;;;;;2.85;1.90;;;22.40;39.80;;;;;;5005165;28;20032;-65
2022/03/23 08:24:16;;;;;;;2.90;1.88;;;22.40;39.80;;;;;;5011043;28;20030;-65
2022/03/23 08:26:42;;;;;;;3.38;2.00;;;22.50;39.90;;;;;;4996462;28;20091;-65
2022/03/23 08:29:08;;;;;;;3.35;2.00;;;22.50;40.10;;;;;;5017177;28;20117;-65
2022/03/23 08:31:34;;;;;;;3.42;2.03;;;22.50;40.10;;;;;;5002485;28;20038;-64
2022/03/23 08:34:00;;;;;;;3.10;1.80;;;22.50;40.10;;;;;;5000195;28;20065;-64
2022/03/23 08:36:26;;;;;;;3.25;1.92;;;22.50;40.00;;;;;;5002122;28;20061;-65
2022/03/23 08:38:51;;;;;;;3.97;2.20;;;22.60;40.00;;;;;;4996867;28;20034;-66
2022/03/23 08:41:18;;;;;;;3.03;1.90;;;22.60;39.90;;;;;;5001989;28;20042;-60
2022/03/23 08:43:44;;;;;;;2.97;1.80;;;22.60;39.90;;;;;;5000045;28;20033;-65
2022/03/23 08:46:12;;;;;;;2.78;1.70;;;22.60;39.90;;;;;;4998966;28;20034;-65
2022/03/23 08:48:37;;;;;;;3.10;1.90;;;22.60;39.90;;;;;;5003018;28;20026;-62
2022/03/23 08:51:03;;;;;;;3.15;1.65;;;22.60;39.80;;;;;;5003107;28;20022;-65
2022/03/23 08:53:29;;;;;;;3.40;1.90;;;22.60;40.30;;;;;;5001779;28;20627;-61
2022/03/23 08:55:55;;;;;;;2.22;1.50;;;22.60;40.00;;;;;;5001622;28;20112;-64
2022/03/23 08:58:20;;;;;;;2.97;1.63;;;22.60;40.30;;;;;;4998105;28;20109;-65
2022/03/23 09:00:46;;;;;;;2.92;1.55;;;22.60;40.20;;;;;;5002050;28;20030;-65
2022/03/23 09:03:12;;;;;;;2.53;1.50;;;22.70;40.10;;;;;;4999101;28;20036;-65
2022/03/23 09:05:37;;;;;;;2.30;1.48;;;22.70;40.20;;;;;;5001443;28;20466;-65
2022/03/23 09:08:03;;;;;;;4.28;1.80;;;22.70;40.20;;;;;;5001747;28;20052;-65
2022/03/23 09:10:29;;;;;;;2.92;1.80;;;22.70;40.20;;;;;;4998217;28;20040;-61
2022/03/23 09:12:54;;;;;;;3.63;1.85;;;22.80;40.10;;;;;;4999736;28;20034;-64
2022/03/23 09:15:20;;;;;;;3.17;1.65;;;22.80;40.00;;;;;;4999851;28;20041;-66
2022/03/23 09:17:46;;;;;;;3.08;1.95;;;22.80;40.30;;;;;;5009194;28;20029;-62
2022/03/23 09:20:13;;;;;;;4.10;1.73;;;22.80;40.20;;;;;;5001002;28;20026;-64
2022/03/23 09:22:40;;;;;;;3.45;1.42;;;22.80;40.10;;;;;;5002033;28;20117;-65
2022/03/23 09:25:09;;;;;;;2.42;1.30;;;22.80;40.10;;;;;;5016735;28;20038;-66
2022/03/23 09:27:39;;;;;;;3.47;1.63;;;22.80;40.20;;;;;;4991025;28;20038;-65
2022/03/23 09:30:06;;;;;;;2.58;1.80;;;22.80;40.30;;;;;;5001187;28;20052;-63
2022/03/23 09:32:32;;;;;;;3.63;1.90;;;22.90;40.20;;;;;;5000001;28;20056;-61
2022/03/23 09:34:58;;;;;;;3.40;1.40;;;22.90;40.10;;;;;;4998030;28;20397;-63
2022/03/23 09:40:08;;;;;;;3.40;1.80;;;22.90;40.20;;;;;;4999028;28;20029;-64
2022/03/23 09:42:34;;;;;;;3.75;1.70;;;22.90;40.20;;;;;;4999376;28;20084;-63
2022/03/23 09:45:00;;;;;;;3.35;1.70;;;22.90;40.10;;;;;;4996150;28;20462;-63
2022/03/23 09:47:26;;;;;;;2.50;1.58;;;22.90;40.10;;;;;;5000821;28;20084;-66
2022/03/23 09:49:52;;;;;;;3.22;1.80;;;22.90;40.10;;;;;;4998597;28;20339;-65
2022/03/23 09:52:18;;;;;;;3.03;1.88;;;23.00;40.10;;;;;;4998030;28;20041;-62
2022/03/23 09:54:45;;;;;;;2.83;1.80;;;23.00;40.00;;;;;;4997673;28;20072;-65
2022/03/23 09:57:12;;;;;;;4.07;2.30;;;23.00;40.00;;;;;;5000287;28;20026;-64
2022/03/23 09:59:38;;;;;;;2.50;1.67;;;23.00;40.00;;;;;;4999926;28;20375;-66
2022/03/23 10:02:03;;;;;;;3.83;2.08;;;23.00;39.90;;;;;;5000236;28;20037;-66
2022/03/23 10:05:06;;;;;;;3.22;1.98;;;23.00;39.90;;;;;;5001211;28;20041;-65
2022/03/23 10:08:03;;;;;;;3.08;1.92;;;23.00;39.90;;;;;;4994634;28;20305;-66
2022/03/23 10:11:01;;;;;;;3.55;1.70;;;23.00;39.90;;;;;;4997372;28;20463;-62
2022/03/23 10:13:54;;;;;;;3.08;1.88;;;23.00;39.80;;;;;;5000687;28;20034;-65
2022/03/23 10:16:52;;;;;;;2.72;1.73;;;23.00;39.80;;;;;;5003551;28;20034;-63
2022/03/23 10:19:18;;;;;;;2.40;1.70;;;23.10;39.90;;;;;;5006340;28;20026;-64
2022/03/23 10:21:43;;;;;;;2.80;1.55;;;23.00;39.80;;;;;;4999560;28;20409;-65
2022/03/23 10:24:09;;;;;;;2.88;1.75;;;23.10;39.90;;;;;;5004473;28;20033;-66
2022/03/23 10:26:36;;;;;;;2.80;1.63;;;23.10;39.90;;;;;;5003794;28;20506;-66
2022/03/23 10:29:03;;;;;;;3.53;1.75;;;23.00;39.90;;;;;;4999727;28;20362;-66
2022/03/23 10:31:29;;;;;;;3.00;2.08;;;23.10;40.00;;;;;;4995806;28;20030;-66
2022/03/23 10:34:10;;;;;;;3.15;1.80;;;23.10;40.00;;;;;;4998566;28;20498;-65
2022/03/23 10:36:38;;;;;;;2.50;1.60;;;23.10;39.90;;;;;;5005158;28;20030;-65
2022/03/23 10:39:06;;;;;;;3.00;1.70;;;23.10;39.80;;;;;;4999518;28;20048;-65
2022/03/23 10:41:32;;;;;;;2.63;1.60;;;23.10;39.80;;;;;;5003699;28;20034;-65
2022/03/23 10:43:58;;;;;;;2.80;1.65;;;23.10;39.90;;;;;;4996887;28;20367;-66
2022/03/23 10:46:25;;;;;;;2.50;1.63;;;23.10;40.00;;;;;;5002467;28;20084;-66
2022/03/23 10:49:02;;;;;;;2.88;1.70;;;23.10;40.00;;;;;;5006797;28;20073;-64
2022/03/23 10:51:32;;;;;;;3.40;1.80;;;23.10;40.00;;;;;;5006885;28;20032;-66
2022/03/23 10:53:59;;;;;;;3.08;1.42;;;23.10;40.00;;;;;;5004895;28;20038;-65
2022/03/23 10:56:37;;;;;;;2.78;1.58;;;23.10;40.00;;;;;;5004813;28;20441;-64
2022/03/23 10:59:22;;;;;;;2.60;1.60;;;23.10;39.90;;;;;;5007442;28;20042;-63
2022/03/23 11:02:08;;;;;;;2.80;1.70;;;23.10;39.90;;;;;;5004393;28;20038;-63
2022/03/23 11:05:01;;;;;;;3.00;1.70;;;23.10;39.90;;;;;;5004647;28;20117;-62
2022/03/23 11:07:30;;;;;;;3.83;1.85;;;23.20;40.00;;;;;;5004341;28;20884;-62
2022/03/23 11:15:49;;;;;;;3.13;1.50;;;23.20;40.00;;;;;;4998919;28;20043;-65
2022/03/23 11:18:17;;;;;;;2.45;1.60;;;23.20;40.10;;;;;;5005714;28;20424;-66
2022/03/23 11:20:49;;;;;;;5.55;1.75;;;23.20;40.10;;;;;;5003263;28;20066;-66
2022/03/23 11:23:31;;;;;;;2.58;1.67;;;23.20;40.10;;;;;;5006418;28;20634;-65
2022/03/23 11:26:02;;;;;;;2.13;1.50;;;23.30;40.20;;;;;;5001500;28;20034;-63
2022/03/23 11:28:35;;;;;;;2.78;1.60;;;23.20;40.10;;;;;;5001102;28;20034;-66
2022/03/23 11:31:09;;;;;;;2.88;1.70;;;23.30;40.00;;;;;;5003520;28;20037;-64
2022/03/23 11:33:37;;;;;;;2.60;1.60;;;23.30;40.00;;;;;;5007197;28;21254;-65
2022/03/23 11:36:12;;;;;;;2.55;1.60;;;23.30;40.00;;;;;;5002619;28;20212;-66
2022/03/23 11:38:39;;;;;;;2.83;1.58;;;23.30;40.00;;;;;;5001460;28;20025;-66
2022/03/23 11:41:07;;;;;;;2.40;1.45;;;23.30;40.00;;;;;;5000055;28;20074;-66
2022/03/23 11:43:34;;;;;;;2.53;1.50;;;23.30;40.10;;;;;;5001741;28;20022;-66
2022/03/23 11:46:00;;;;;;;2.22;1.45;;;23.30;40.00;;;;;;5003475;28;20856;-65
2022/03/23 11:48:30;;;;;;;2.45;1.52;;;23.40;40.10;;;;;;5011422;28;20018;-66
2022/03/23 11:51:31;;;;;;;2.88;1.70;;;23.40;40.00;;;;;;5010176;28;20132;-65
2022/03/23 11:54:18;;;;;;;2.78;1.60;;;23.40;40.00;;;;;;5008727;28;20033;-66
2022/03/23 11:56:46;;;;;;;2.58;1.70;;;23.40;40.00;;;;;;5003531;28;20040;-66
2022/03/23 11:59:22;;;;;;;2.78;1.90;;;23.40;40.10;;;;;;5005944;28;20418;-66
2022/03/23 12:01:50;;;;;;;3.08;1.80;;;23.40;40.00;;;;;;5020033;28;20443;-65
2022/03/23 12:04:18;;;;;;;2.63;1.80;;;23.50;40.00;;;;;;5000282;28;20034;-66
2022/03/23 12:06:45;;;;;;;2.90;1.80;;;23.50;39.90;;;;;;5002923;28;20018;-65
2022/03/23 12:09:34;;;;;;;2.60;1.67;;;23.40;39.90;;;;;;4999371;28;20379;-65
2022/03/23 12:12:10;;;;;;;2.50;1.50;;;23.50;40.10;;;;;;5002742;28;20042;-66
2022/03/23 12:14:38;;;;;;;2.90;1.73;;;23.50;40.00;;;;;;5016573;28;20148;-61
2022/03/23 12:17:17;;;;;;;2.88;1.63;;;23.50;39.90;;;;;;5002199;28;20057;-65
2022/03/23 12:19:54;;;;;;;2.50;1.50;;;23.50;40.00;;;;;;5003372;28;20033;-65
2022/03/23 12:22:34;;;;;;;4.25;1.70;;;23.50;40.10;;;;;;5000528;28;20135;-60
2022/03/23 12:25:24;;;;;;;2.42;1.58;;;23.60;40.10;;;;;;4995060;28;20030;-66
2022/03/23 12:28:15;;;;;;;2.80;1.77;;;23.60;40.00;;;;;;5001391;28;20639;-66
2022/03/23 12:30:58;;;;;;;3.00;1.70;;;23.60;40.00;;;;;;5002505;28;20048;-61
2022/03/23 12:33:27;;;;;;;2.72;1.67;;;23.60;40.10;;;;;;5000502;28;20721;-66
2022/03/23 12:36:01;;;;;;;2.47;1.40;;;23.60;40.00;;;;;;5001647;28;20026;-65
2022/03/23 12:38:30;;;;;;;2.97;1.70;;;23.60;40.00;;;;;;4993665;28;20060;-65
2022/03/23 12:41:08;;;;;;;2.25;1.48;;;23.60;39.90;;;;;;5003920;28;20113;-66
2022/03/23 12:43:46;;;;;;;2.53;1.37;;;23.70;40.00;;;;;;4999221;28;20061;-66
2022/03/23 12:46:26;;;;;;;3.50;1.50;;;23.70;40.00;;;;;;4998356;28;21115;-61
2022/03/23 12:57:49;;;;;;;2.70;1.58;;;23.70;40.10;;;;;;4998621;28;20072;-65
2022/03/23 13:00:31;;;;;;;3.17;1.40;;;23.70;40.10;;;;;;4997501;28;20127;-62
2022/03/23 13:03:06;;;;;;;2.80;1.40;;;23.70;40.10;;;;;;5000080;28;20284;-66
2022/03/23 13:05:58;;;;;;;2.88;1.80;;;23.70;40.10;;;;;;4996968;28;20131;-62
2022/03/23 13:08:27;;;;;;;2.55;1.40;;;23.70;40.00;;;;;;4994158;28;20475;-61
2022/03/23 13:10:58;;;;;;;2.20;1.60;;;23.70;40.00;;;;;;4997335;28;20026;-67
2022/03/23 13:13:27;;;;;;;2.78;1.50;;;23.80;40.00;;;;;;5003691;28;20037;-62
2022/03/23 13:15:53;;;;;;;2.42;1.60;;;23.80;40.50;;;;;;5002717;28;20057;-62
2022/03/23 13:18:39;;;;;;;3.25;2.03;;;23.80;40.00;;;;;;4991350;28;20594;-64
2022/03/23 13:21:16;;;;;;;2.78;1.88;;;23.80;40.00;;;;;;4995833;28;20631;-67
2022/03/23 13:23:44;;;;;;;2.33;1.52;;;23.80;40.00;;;;;;4992270;28;20042;-63